Chain of Rocks, Missouri
Current Conditions -  °F | °C
As of 10:54 AM on Wednesday 26 Nov 2014 (Local Time) from KSET Reporting Station
Overcast Overcast  
Wind Chill: 25°   Ceiling: 5500
Heat Index: 33°   Visibility: 8mi
Dew Point: 29°   Wind: 9mph
Humidity: 85%   Direction: 100°E
Pressure: 30.02"   Gusts: NA
Location:  38.9362°N, 90.7728°W
Report Text: KSET 261654Z AUTO 10008KT 8SM OVC055 01/M02 A3002 RMK AO2 SLP169 T00061017
Loading
Personal Weather Stations






























Interactive Weather Map New forecast layout! Learn more

10-Day Weather Forecast

Advertisements
Track Severe Weather on mobile